Bookmark and Share
Track history (hours):
 

Fingard

Last reported at 2014-Apr-21 05:33 UTC. Time now 2014-Apr-21 07:31 UTC.
Position N 53°57' E 007°16'.

Length 95 m; draft 5.8 m.

Type: Ship. MMSI: 230999000.

NotesDate/timePositionNaut miles runAvg speedWind from/ knotsBaromVisibWave heightAir tempDewpointWater temp
2014-Apr-21 05:33N 53°57' E 007°16'1211.9
2014-Apr-21 04:33N 54°00' E 007°36'1111.2
2014-Apr-21 03:33N 54°02' E 007°54'1010.1
2014-Apr-21 02:33N 54°01' E 008°12'1010.2
2014-Apr-21 01:33N 53°59' E 008°29'8 8.2
2014-Apr-21 00:33N 53°55' E 008°41'9 9.3
2014-Apr-20 23:33N 53°51' E 008°55'9 8.7
2014-Apr-20 22:33N 53°54' E 009°09'3 2.9
2014-Apr-20 21:33N 53°56' E 009°12'9 8.7
2014-Apr-20 20:33N 54°04' E 009°19'8 8.1
2014-Apr-20 19:33N 54°10' E 009°26'5 5.0
2014-Apr-20 18:33N 54°12' E 009°34'64 6.2
2014-Apr-20 08:17N 54°35' E 011°17'912.6
2014-Apr-20 07:34N 54°31' E 011°31'1212.4
2014-Apr-20 06:34N 54°27' E 011°52'1111.0
2014-Apr-20 05:33N 54°29' E 012°10'1110.6
2014-Apr-20 04:34N 54°38' E 012°19'1111.1
2014-Apr-20 03:33N 54°45' E 012°34'1111.0
2014-Apr-20 02:33N 54°50' E 012°51'1111.4
2014-Apr-20 01:34N 54°53' E 013°10'1211.6
2014-Apr-20 00:33N 54°57' E 013°29'1111.4
2014-Apr-19 23:34N 55°01' E 013°48'1111.3
2014-Apr-19 22:34N 55°06' E 014°06'1111.3
2014-Apr-19 21:33N 55°15' E 014°18'1111.4
2014-Apr-19 20:33N 55°24' E 014°30'1111.3
2014-Apr-19 19:33N 55°31' E 014°46'1211.6
2014-Apr-19 18:33N 55°37' E 015°04'1211.6
2014-Apr-19 17:33N 55°43' E 015°21'1211.6
2014-Apr-19 16:33N 55°48' E 015°39'1311.6
2014-Apr-19 15:26N 55°55' E 015°59'1011.5
2014-Apr-19 14:33N 55°60' E 016°15'  
2014-Apr-13 15:33N 55°56' E 016°21'2211.1
2014-Apr-13 13:33N 55°45' E 015°46'2411.3
2014-Apr-13 11:25N 55°33' E 015°09'1011.4
2014-Apr-13 10:34N 55°28' E 014°54'1111.2
2014-Apr-13 09:33N 55°22' E 014°37'1111.3
2014-Apr-13 08:33N 55°13' E 014°25'1211.7
2014-Apr-13 07:33N 55°04' E 014°13'1111.2
2014-Apr-13 06:33N 54°58' E 013°55'1311.3
2014-Apr-13 05:22N 54°53' E 013°34'1011.4
2014-Apr-13 04:31N 54°50' E 013°18'1111.2
2014-Apr-13 03:33N 54°45' E 013°01'1211.5
2014-Apr-13 02:33N 54°40' E 012°43'1211.6
2014-Apr-13 01:33N 54°34' E 012°26'1111.3
2014-Apr-13 00:33N 54°26' E 012°12'1211.5
2014-Apr-12 23:33N 54°25' E 011°52'1111.2
2014-Apr-12 22:33N 54°28' E 011°34'1111.3
2014-Apr-12 21:33N 54°33' E 011°16'71 7.8
2014-Apr-12 12:26N 54°09' E 009°21'6 7.3
2014-Apr-12 11:34N 54°03' E 009°18'0 0.1
2014-Apr-12 10:34N 54°02' E 009°18'5 5.0
2014-Apr-12 09:33N 53°58' E 009°15'4 4.0
2014-Apr-12 08:33N 53°55' E 009°11'0 0.0
2014-Apr-12 07:33N 53°55' E 009°11'1 1.2
2014-Apr-12 06:33N 53°54' E 009°09'2 1.6
2014-Apr-12 05:33N 53°53' E 009°07'1 0.6
2014-Apr-12 04:33N 53°53' E 009°06'5 5.3
2014-Apr-12 03:34N 53°51' E 008°58'7 7.0
2014-Apr-12 02:34N 53°51' E 008°46'7 6.9
2014-Apr-12 01:33N 53°56' E 008°39'8 7.9
2014-Apr-12 00:33N 53°59' E 008°26'9 9.3
2014-Apr-11 23:33N 53°59' E 008°11'1010.5
2014-Apr-11 22:33N 53°57' E 007°53'1111.0
2014-Apr-11 21:34N 53°55' E 007°35'1211.5
2014-Apr-11 20:33N 53°52' E 007°16'1211.9
2014-Apr-11 19:33N 53°49' E 006°56'3712.3
2014-Apr-11 16:33N 53°39' E 005°57'1212.1
2014-Apr-11 15:33N 53°35' E 005°37'1212.3
2014-Apr-11 14:33N 53°31' E 005°18'1212.0
2014-Apr-11 13:33N 53°27' E 004°59'1111.4
2014-Apr-11 12:33N 53°22' E 004°42'1611.2
2014-Apr-11 11:07N 53°07' E 004°29'710.7
2014-Apr-11 10:28N 53°01' E 004°23'910.3
2014-Apr-11 09:33N 52°53' E 004°16'1010.2
2014-Apr-11 08:33N 52°45' E 004°05'1010.2
2014-Apr-11 07:33N 52°37' E 003°54'1010.1
2014-Apr-11 06:33N 52°30' E 003°43'1010.0
2014-Apr-11 05:33N 52°23' E 003°31'  

Dump ship's entire track history

sailing weather and tide predictions

Fingard — OJNG — position and weather